Time;durP1;ratioP1;P1;durP2;ratioP2;P2;SDS_P1;SDS_P2;PMS_P1;PMS_P2;Temp;Humidity;BMP_temperature;BMP_pressure;BME280_temperature;BME280_humidity;BME280_pressure;Samples;Min_cycle;Max_cycle;Signal;HPM_P1;HPM_P2
2023/02/25 00:02:07;;;;;;;9.52;5.85;;;22.10;99.90;;;;;;5012850;28;20549;-48
2023/02/25 00:04:33;;;;;;;14.02;6.43;;;22.10;99.90;;;;;;5012777;28;20111;-49
2023/02/25 00:06:59;;;;;;;15.20;6.00;;;22.10;99.90;;;;;;5007749;28;20050;-49
2023/02/25 00:09:25;;;;;;;10.73;6.60;;;22.10;99.90;;;;;;4993687;28;20027;-49
2023/02/25 00:11:52;;;;;;;12.93;7.07;;;22.00;99.90;;;;;;5011343;28;20028;-49
2023/02/25 00:14:17;;;;;;;12.23;6.72;;;22.00;99.90;;;;;;5012997;28;20026;-50
2023/02/25 00:16:43;;;;;;;10.43;6.90;;;22.00;99.90;;;;;;5007875;28;20077;-49
2023/02/25 00:19:10;;;;;;;10.07;6.75;;;22.00;99.90;;;;;;4993018;28;20027;-49
2023/02/25 00:21:36;;;;;;;13.15;7.50;;;21.90;99.90;;;;;;4992850;28;20545;-49
2023/02/25 00:24:03;;;;;;;12.05;7.47;;;22.00;99.90;;;;;;4992926;28;20023;-49
2023/02/25 00:26:28;;;;;;;11.65;7.78;;;21.90;99.90;;;;;;4992963;28;20037;-49
2023/02/25 00:28:54;;;;;;;12.13;6.97;;;21.90;99.90;;;;;;4992746;28;20022;-50
2023/02/25 00:31:23;;;;;;;13.32;7.10;;;21.90;99.90;;;;;;4992819;28;20523;-49
2023/02/25 00:33:50;;;;;;;13.38;7.25;;;21.90;99.90;;;;;;4992795;28;20018;-49
2023/02/25 00:36:21;;;;;;;11.68;7.43;;;21.80;99.90;;;;;;4992576;28;20021;-49
2023/02/25 00:38:49;;;;;;;11.65;7.88;;;21.80;99.90;;;;;;4992732;28;20029;-49
2023/02/25 00:41:17;;;;;;;15.40;8.10;;;21.80;99.90;;;;;;4994223;28;20060;-48
2023/02/25 00:43:48;;;;;;;12.32;8.00;;;21.80;99.90;;;;;;5012255;28;20037;-48
2023/02/25 00:46:14;;;;;;;13.02;8.48;;;21.80;99.90;;;;;;5009280;28;20384;-48
2023/02/25 00:48:40;;;;;;;13.13;8.63;;;21.80;99.90;;;;;;4991908;28;20035;-48
2023/02/25 00:51:12;;;;;;;13.73;8.07;;;21.70;99.90;;;;;;4990687;28;20332;-48
2023/02/25 00:53:38;;;;;;;16.70;8.68;;;21.70;99.90;;;;;;4992660;28;20058;-49
2023/02/25 00:56:06;;;;;;;11.43;7.70;;;21.70;99.90;;;;;;4992955;28;20062;-48
2023/02/25 00:58:35;;;;;;;17.35;9.10;;;21.70;99.90;;;;;;4992003;28;20049;-48
2023/02/25 01:01:01;;;;;;;13.95;8.77;;;21.70;99.90;;;;;;5038470;23;20057;-65
2023/02/25 01:03:27;;;;;;;13.88;7.80;;;21.70;99.90;;;;;;5032046;28;20021;-65
2023/02/25 01:05:52;;;;;;;13.15;8.75;;;21.70;99.90;;;;;;5031961;28;20033;-65
2023/02/25 01:08:19;;;;;;;14.18;8.60;;;21.70;99.90;;;;;;5032182;28;20096;-65
2023/02/25 01:10:46;;;;;;;14.95;9.13;;;21.70;99.90;;;;;;5031957;28;20021;-66
2023/02/25 01:13:13;;;;;;;14.43;8.73;;;21.60;99.90;;;;;;5031943;28;20021;-65
2023/02/25 01:15:39;;;;;;;14.15;8.88;;;21.60;99.90;;;;;;5014460;28;20049;-65
2023/02/25 01:18:05;;;;;;;15.55;8.38;;;21.60;99.90;;;;;;5032139;28;20138;-68
2023/02/25 01:20:32;;;;;;;15.63;8.55;;;21.60;99.90;;;;;;5032319;28;20021;-65
2023/02/25 01:22:58;;;;;;;15.65;9.20;;;21.60;99.90;;;;;;5032050;28;20029;-65
2023/02/25 01:25:24;;;;;;;14.43;8.63;;;21.60;99.90;;;;;;5031938;28;20463;-67
2023/02/25 01:27:54;;;;;;;13.68;8.98;;;21.50;99.90;;;;;;5031985;28;20468;-67
2023/02/25 01:30:20;;;;;;;16.27;9.80;;;21.50;99.90;;;;;;5031853;28;20420;-67
2023/02/25 01:32:46;;;;;;;15.18;10.10;;;21.50;99.90;;;;;;5032140;28;20048;-67
2023/02/25 01:35:12;;;;;;;17.98;11.40;;;21.50;99.90;;;;;;5031923;28;20391;-67
2023/02/25 01:37:38;;;;;;;15.75;10.43;;;21.50;99.90;;;;;;5031975;28;20017;-67
2023/02/25 01:40:04;;;;;;;16.17;10.45;;;21.50;99.90;;;;;;5032057;28;20026;-67
2023/02/25 01:42:30;;;;;;;16.57;10.37;;;21.50;99.90;;;;;;5032109;28;20067;-66
2023/02/25 01:45:20;;;;;;;15.80;9.50;;;21.50;99.90;;;;;;5031696;28;20026;-67
2023/02/25 01:48:17;;;;;;;15.85;10.32;;;21.40;99.90;;;;;;5014190;28;20028;-67
2023/02/25 01:50:47;;;;;;;14.50;9.50;;;21.40;99.90;;;;;;5031774;28;20029;-67
2023/02/25 01:53:16;;;;;;;14.52;9.85;;;21.40;99.90;;;;;;5031831;28;20029;-67
2023/02/25 01:55:43;;;;;;;14.45;9.63;;;21.40;99.90;;;;;;5013971;28;20108;-66
2023/02/25 01:58:10;;;;;;;17.70;11.00;;;21.30;99.90;;;;;;5032052;28;20051;-67
2023/02/25 02:00:37;;;;;;;17.52;10.80;;;21.30;99.90;;;;;;5031978;28;20057;-67
2023/02/25 02:03:04;;;;;;;16.95;11.40;;;21.30;99.90;;;;;;5030870;28;20105;-67
2023/02/25 02:05:52;;;;;;;17.33;11.38;;;21.30;99.90;;;;;;5030612;28;20064;-68
2023/02/25 02:08:18;;;;;;;20.98;11.70;;;21.30;99.90;;;;;;5030741;28;20053;-67
2023/02/25 02:10:44;;;;;;;16.92;11.23;;;21.20;99.90;;;;;;5015919;28;20064;-67
2023/02/25 02:13:10;;;;;;;17.67;11.45;;;21.30;99.90;;;;;;5034198;28;20105;-68
2023/02/25 02:15:42;;;;;;;16.92;11.02;;;21.20;99.90;;;;;;5034199;28;20051;-67
2023/02/25 02:18:09;;;;;;;17.27;11.68;;;21.20;99.90;;;;;;5034131;28;20422;-67
2023/02/25 02:20:46;;;;;;;22.83;12.50;;;21.20;99.90;;;;;;5016914;28;20022;-67
2023/02/25 02:23:13;;;;;;;;;;;21.20;99.90;;;;;;5034376;28;20022;-67
2023/02/25 02:26:00;;;;;;;20.83;12.93;;;21.20;99.90;;;;;;5032739;28;20364;-67
2023/02/25 02:28:50;;;;;;;22.65;12.95;;;21.20;99.90;;;;;;5033859;28;20262;-66
2023/02/25 02:31:30;;;;;;;21.67;12.82;;;21.10;99.90;;;;;;5033919;28;20026;-67
2023/02/25 02:33:59;;;;;;;20.60;12.82;;;21.20;99.90;;;;;;5016064;28;20041;-67
2023/02/25 02:36:37;;;;;;;25.77;14.02;;;21.10;99.90;;;;;;5033681;28;20053;-67
2023/02/25 02:39:21;;;;;;;;;;;21.10;99.90;;;;;;5034076;28;20025;-67
2023/02/25 02:41:57;;;;;;;21.15;13.07;;;21.10;99.90;;;;;;5033713;28;19913;-67
2023/02/25 02:44:29;;;;;;;19.17;12.27;;;21.10;99.90;;;;;;5033394;28;20026;-67
2023/02/25 02:47:05;;;;;;;19.42;12.15;;;21.10;99.90;;;;;;5033604;28;20427;-67
2023/02/25 02:49:53;;;;;;;21.58;12.77;;;21.10;99.90;;;;;;5033456;28;20028;-67
2023/02/25 02:52:24;;;;;;;19.23;12.10;;;21.10;99.90;;;;;;5016555;28;20448;-66
2023/02/25 02:55:21;;;;;;;20.38;12.32;;;21.10;99.90;;;;;;5033349;28;20021;-66
2023/02/25 02:57:51;;;;;;;19.43;13.73;;;21.00;99.90;;;;;;5015604;28;20080;-66
2023/02/25 03:00:25;;;;;;;19.55;12.20;;;21.00;99.90;;;;;;4995582;23;1540081;-47
2023/02/25 03:02:57;;;;;;;20.17;12.68;;;21.00;99.90;;;;;;5013143;28;20090;-47
2023/02/25 03:05:26;;;;;;;21.83;13.63;;;21.00;99.90;;;;;;5032781;28;20099;-47
2023/02/25 03:08:05;;;;;;;23.40;13.75;;;21.00;99.90;;;;;;5033961;28;20018;-48
2023/02/25 03:10:32;;;;;;;20.42;13.35;;;21.00;99.90;;;;;;5017449;28;20021;-47
2023/02/25 03:12:58;;;;;;;19.85;12.05;;;20.90;99.90;;;;;;5016364;28;20022;-48
2023/02/25 03:15:25;;;;;;;23.65;13.18;;;20.90;99.90;;;;;;5012917;28;20036;-47
2023/02/25 03:18:04;;;;;;;22.00;13.18;;;21.00;99.90;;;;;;5032783;28;20100;-47
2023/02/25 03:20:45;;;;;;;18.77;13.02;;;20.90;99.90;;;;;;5033202;28;20061;-48
2023/02/25 03:23:22;;;;;;;22.13;13.02;;;20.90;99.90;;;;;;5021971;28;20021;-48
2023/02/25 03:25:55;;;;;;;20.77;12.85;;;20.90;99.90;;;;;;5033685;28;20483;-48
2023/02/25 03:28:32;;;;;;;26.33;13.90;;;20.90;99.90;;;;;;5023899;28;20491;-48
2023/02/25 03:31:02;;;;;;;21.10;13.02;;;20.90;99.90;;;;;;5031109;28;20034;-48
2023/02/25 03:33:53;;;;;;;20.50;12.50;;;20.90;99.90;;;;;;5033556;28;20131;-48
2023/02/25 03:36:27;;;;;;;22.33;14.15;;;20.90;99.90;;;;;;5033452;28;20029;-49
2023/02/25 03:38:57;;;;;;;19.58;13.02;;;20.90;99.90;;;;;;5019335;28;20046;-48
2023/02/25 03:41:29;;;;;;;19.50;11.45;;;20.80;99.90;;;;;;5015485;28;20061;-48
2023/02/25 03:43:57;;;;;;;18.05;11.57;;;20.80;99.90;;;;;;5033451;28;20022;-48
2023/02/25 03:46:24;;;;;;;;;;;20.80;99.90;;;;;;5033456;28;20625;-47
2023/02/25 03:48:51;;;;;;;18.57;11.83;;;20.80;99.90;;;;;;5025013;28;19913;-48
2023/02/25 03:51:22;;;;;;;19.45;11.82;;;20.80;99.90;;;;;;5013569;28;20022;-47
2023/02/25 03:53:49;;;;;;;18.35;11.40;;;20.80;99.90;;;;;;5033276;28;20029;-48
2023/02/25 03:56:15;;;;;;;18.95;11.82;;;20.80;99.90;;;;;;5032029;28;20036;-48
2023/02/25 03:58:42;;;;;;;19.50;11.95;;;20.80;99.90;;;;;;5019661;28;20024;-48
2023/02/25 04:01:29;;;;;;;20.15;12.32;;;20.80;99.90;;;;;;5017768;23;20136;-66
2023/02/25 04:03:55;;;;;;;;;;;20.80;99.90;;;;;;5013688;28;20026;-67
2023/02/25 04:06:24;;;;;;;17.33;11.27;;;20.80;99.90;;;;;;5026392;28;19920;-66
2023/02/25 04:08:51;;;;;;;18.92;11.57;;;20.80;99.90;;;;;;5013262;28;20522;-67
2023/02/25 04:11:17;;;;;;;18.17;11.73;;;20.80;99.90;;;;;;5027733;28;20148;-67
2023/02/25 04:13:42;;;;;;;17.02;10.95;;;20.70;99.90;;;;;;5033182;28;20116;-67
2023/02/25 04:16:08;;;;;;;16.73;11.40;;;20.70;99.90;;;;;;5014995;28;20032;-67
2023/02/25 04:18:34;;;;;;;17.60;10.52;;;20.70;99.90;;;;;;5024573;28;20026;-66
2023/02/25 04:21:00;;;;;;;17.83;11.85;;;20.70;99.90;;;;;;5029499;28;20109;-67
2023/02/25 04:23:25;;;;;;;17.02;11.25;;;20.70;99.90;;;;;;5022746;28;20080;-67
2023/02/25 04:25:51;;;;;;;18.52;11.15;;;20.70;99.90;;;;;;5029518;28;20484;-67
2023/02/25 04:28:17;;;;;;;16.88;10.65;;;20.70;99.90;;;;;;5021188;28;20375;-67
2023/02/25 04:30:43;;;;;;;17.02;10.73;;;20.70;99.90;;;;;;5000277;28;20073;-67
2023/02/25 04:33:10;;;;;;;15.90;11.18;;;20.70;99.90;;;;;;5020946;28;20060;-68
2023/02/25 04:35:36;;;;;;;17.77;11.32;;;20.70;99.90;;;;;;5018996;28;20379;-67
2023/02/25 04:38:02;;;;;;;16.90;11.50;;;20.70;99.90;;;;;;5012558;28;20046;-67
2023/02/25 04:40:28;;;;;;;16.08;10.32;;;20.70;99.90;;;;;;5012848;28;20061;-65
2023/02/25 04:42:54;;;;;;;18.05;11.00;;;20.70;99.90;;;;;;5012611;28;20022;-67
2023/02/25 04:45:24;;;;;;;15.85;10.50;;;20.70;99.90;;;;;;5024404;28;20383;-67
2023/02/25 04:47:52;;;;;;;17.08;10.52;;;20.70;99.90;;;;;;5032192;28;20021;-70
2023/02/25 04:50:17;;;;;;;;;;;20.70;99.90;;;;;;5032599;28;20067;-68
2023/02/25 04:52:43;;;;;;;15.05;9.15;;;20.70;99.90;;;;;;5032314;28;20007;-66
2023/02/25 04:55:09;;;;;;;16.45;9.68;;;20.70;99.90;;;;;;5021757;28;20030;-63
2023/02/25 04:57:41;;;;;;;17.55;10.05;;;20.60;99.90;;;;;;5011542;28;20040;-63
2023/02/25 05:00:10;;;;;;;15.82;9.82;;;20.60;99.90;;;;;;5015813;28;20049;-64
2023/02/25 05:02:36;;;;;;;16.48;9.13;;;20.60;99.90;;;;;;5032515;28;20025;-63
2023/02/25 05:05:02;;;;;;;15.73;10.25;;;20.60;99.90;;;;;;5021615;28;20044;-71
2023/02/25 05:07:28;;;;;;;14.38;9.32;;;20.60;99.90;;;;;;4996942;28;20080;-66
2023/02/25 05:09:53;;;;;;;14.88;9.60;;;20.60;99.90;;;;;;5032096;28;20044;-65
2023/02/25 05:12:19;;;;;;;14.13;9.43;;;20.60;99.90;;;;;;5031829;28;20029;-61
2023/02/25 05:14:45;;;;;;;14.90;9.50;;;20.60;99.90;;;;;;5014552;28;20017;-68
2023/02/25 05:17:12;;;;;;;15.30;9.73;;;20.60;99.90;;;;;;5031833;28;20033;-66
2023/02/25 05:19:37;;;;;;;15.00;9.60;;;20.50;99.90;;;;;;5031956;28;20075;-69
2023/02/25 05:22:03;;;;;;;13.05;9.05;;;20.60;99.90;;;;;;5019620;28;20026;-65
2023/02/25 05:24:29;;;;;;;12.75;8.88;;;20.50;99.90;;;;;;5012019;28;20137;-64
2023/02/25 05:26:54;;;;;;;15.30;9.80;;;20.60;99.90;;;;;;5024516;28;20076;-65
2023/02/25 05:29:20;;;;;;;14.77;9.27;;;20.50;99.90;;;;;;5027945;28;20472;-62
2023/02/25 05:31:46;;;;;;;14.00;8.65;;;20.50;99.90;;;;;;5022793;28;20025;-65
2023/02/25 05:34:12;;;;;;;13.27;9.23;;;20.50;99.90;;;;;;5029415;28;20463;-69
2023/02/25 05:36:38;;;;;;;12.45;8.10;;;20.50;99.90;;;;;;5012196;28;20029;-63
2023/02/25 05:39:05;;;;;;;14.07;8.63;;;20.50;99.90;;;;;;4996986;28;20037;-62
2023/02/25 05:41:31;;;;;;;12.38;8.32;;;20.50;99.90;;;;;;5024111;28;20472;-63
2023/02/25 05:43:57;;;;;;;10.98;7.40;;;20.50;99.90;;;;;;5009071;28;20135;-69
2023/02/25 05:46:23;;;;;;;13.25;8.35;;;20.40;99.90;;;;;;5035488;28;20082;-62
2023/02/25 05:48:49;;;;;;;12.63;8.07;;;20.40;99.90;;;;;;5035481;28;20029;-62
2023/02/25 05:51:17;;;;;;;11.82;7.63;;;20.40;99.90;;;;;;5035630;28;20032;-66
2023/02/25 05:53:44;;;;;;;13.88;9.27;;;20.40;99.90;;;;;;5024932;28;20164;-63
2023/02/25 05:56:18;;;;;;;12.00;7.55;;;20.40;99.90;;;;;;5019978;28;20051;-63
2023/02/25 05:58:45;;;;;;;11.43;7.47;;;20.40;99.90;;;;;;5035502;28;20493;-64
2023/02/25 06:01:17;;;;;;;11.52;7.60;;;20.40;99.90;;;;;;5034891;28;20037;-63
2023/02/25 06:03:45;;;;;;;12.50;7.55;;;20.40;99.90;;;;;;5022157;28;20061;-64
2023/02/25 06:06:12;;;;;;;10.77;7.60;;;20.30;99.90;;;;;;5035201;28;20040;-63
2023/02/25 06:08:38;;;;;;;10.48;7.00;;;20.40;99.90;;;;;;5035009;28;20068;-60
2023/02/25 06:11:07;;;;;;;11.38;7.40;;;20.40;99.90;;;;;;5028385;28;20030;-62
2023/02/25 06:13:34;;;;;;;10.77;7.18;;;20.30;99.90;;;;;;5028912;28;20109;-65
2023/02/25 06:16:03;;;;;;;13.07;7.63;;;20.30;99.90;;;;;;5035040;28;20112;-64
2023/02/25 06:18:29;;;;;;;10.45;6.50;;;20.30;99.90;;;;;;5034970;28;20029;-61
2023/02/25 06:20:55;;;;;;;11.80;7.47;;;20.30;99.90;;;;;;5034939;28;20075;-67
2023/02/25 06:23:20;;;;;;;11.00;7.07;;;20.30;99.90;;;;;;5034872;28;20100;-68
2023/02/25 06:25:46;;;;;;;10.63;6.47;;;20.30;99.90;;;;;;5034712;28;20053;-69
2023/02/25 06:28:12;;;;;;;9.63;6.35;;;20.30;99.90;;;;;;5024491;28;20030;-69
2023/02/25 06:30:40;;;;;;;10.25;6.50;;;20.30;99.90;;;;;;5031702;28;20022;-68
2023/02/25 06:33:06;;;;;;;9.88;6.50;;;20.30;99.90;;;;;;5034742;28;20025;-67
2023/02/25 06:35:34;;;;;;;8.45;6.07;;;20.20;99.90;;;;;;5031573;28;20133;-65
2023/02/25 06:38:00;;;;;;;9.23;6.03;;;20.30;99.90;;;;;;5014327;28;20488;-67
2023/02/25 06:40:27;;;;;;;10.65;6.57;;;20.20;99.90;;;;;;5014471;28;20026;-63
2023/02/25 06:42:53;;;;;;;9.30;5.93;;;20.20;99.90;;;;;;5014766;28;20566;-64
2023/02/25 06:45:19;;;;;;;9.75;6.50;;;20.20;99.90;;;;;;5014862;28;20038;-66
2023/02/25 06:47:44;;;;;;;9.05;6.20;;;20.20;99.90;;;;;;5016035;28;20081;-65
2023/02/25 06:50:11;;;;;;;8.70;5.97;;;20.20;99.90;;;;;;5032773;28;20029;-67
2023/02/25 06:52:36;;;;;;;11.85;5.90;;;20.20;99.90;;;;;;5034554;28;20017;-66
2023/02/25 06:55:05;;;;;;;14.57;6.30;;;20.20;99.90;;;;;;5032155;28;20028;-67
2023/02/25 06:57:32;;;;;;;8.32;5.72;;;20.10;99.90;;;;;;5019567;28;20028;-67
2023/02/25 06:59:58;;;;;;;9.85;6.30;;;20.10;99.90;;;;;;5033241;28;20056;-64
2023/02/25 07:02:23;;;;;;;9.13;6.03;;;20.10;99.90;;;;;;5018470;28;20025;-63
2023/02/25 07:04:53;;;;;;;11.65;6.68;;;20.10;99.90;;;;;;5014047;28;20030;-61
2023/02/25 07:07:19;;;;;;;10.25;5.72;;;20.10;99.90;;;;;;5016697;28;20029;-68
2023/02/25 07:09:45;;;;;;;8.25;5.78;;;20.10;99.90;;;;;;5025647;28;20025;-64
2023/02/25 07:12:12;;;;;;;12.20;6.07;;;20.10;99.90;;;;;;4981762;28;20444;-65
2023/02/25 07:14:38;;;;;;;8.73;6.18;;;20.10;99.90;;;;;;5014493;28;20025;-63
2023/02/25 07:17:05;;;;;;;9.80;5.75;;;20.10;99.90;;;;;;5021145;28;20080;-63
2023/02/25 07:19:30;;;;;;;13.07;6.28;;;20.10;99.90;;;;;;5027681;28;20037;-63
2023/02/25 07:21:57;;;;;;;9.00;5.70;;;20.10;99.90;;;;;;5023399;28;20025;-64
2023/02/25 07:24:23;;;;;;;9.23;5.82;;;20.10;99.90;;;;;;5015430;28;20029;-69
2023/02/25 07:26:49;;;;;;;12.90;6.53;;;20.10;99.90;;;;;;5033236;28;20484;-63
2023/02/25 07:29:15;;;;;;;10.20;6.47;;;20.10;99.90;;;;;;5033347;28;20013;-63
2023/02/25 07:31:40;;;;;;;11.48;6.03;;;20.10;99.90;;;;;;5033107;28;20445;-64
2023/02/25 07:34:06;;;;;;;8.50;5.90;;;20.10;99.90;;;;;;5023632;28;20053;-73
2023/02/25 07:36:36;;;;;;;9.65;5.60;;;20.10;99.90;;;;;;5019958;28;20030;-72
2023/02/25 07:39:05;;;;;;;12.45;6.32;;;20.10;99.90;;;;;;5012967;28;20117;-70
2023/02/25 07:41:31;;;;;;;10.50;6.88;;;20.10;99.90;;;;;;5023973;28;20014;-65
2023/02/25 07:43:57;;;;;;;9.48;6.30;;;20.10;99.90;;;;;;5019020;28;20033;-67
2023/02/25 07:46:22;;;;;;;14.90;6.80;;;20.10;99.90;;;;;;4998037;28;20041;-66
2023/02/25 07:48:48;;;;;;;12.30;6.68;;;20.10;99.90;;;;;;5008412;28;20102;-65
2023/02/25 07:51:17;;;;;;;12.52;6.85;;;20.10;99.90;;;;;;5026779;28;20129;-64
2023/02/25 07:53:44;;;;;;;11.30;6.28;;;20.10;99.90;;;;;;5025166;28;20048;-65
2023/02/25 07:56:10;;;;;;;11.82;6.57;;;20.00;99.90;;;;;;5020169;28;20476;-64
2023/02/25 07:58:37;;;;;;;9.93;6.72;;;20.10;99.90;;;;;;5022935;28;20018;-67
2023/02/25 08:01:18;;;;;;;12.25;6.80;;;20.10;99.90;;;;;;5022450;28;20392;-64
2023/02/25 08:03:47;;;;;;;10.10;6.55;;;20.00;99.90;;;;;;5010810;28;20383;-64
2023/02/25 08:06:14;;;;;;;13.80;6.72;;;20.10;99.90;;;;;;5007367;28;20435;-67
2023/02/25 08:08:40;;;;;;;10.50;6.60;;;20.00;99.90;;;;;;5017350;28;20025;-64
2023/02/25 08:11:10;;;;;;;11.43;6.18;;;20.10;99.90;;;;;;5023152;28;20104;-64
2023/02/25 08:13:37;;;;;;;10.55;6.45;;;20.10;99.90;;;;;;5020209;28;20113;-66
2023/02/25 08:16:04;;;;;;;11.00;6.68;;;20.10;99.90;;;;;;5025058;28;20025;-65
2023/02/25 08:18:30;;;;;;;14.63;7.35;;;20.10;99.90;;;;;;5021385;28;20024;-67
2023/02/25 08:20:57;;;;;;;9.40;6.15;;;20.10;99.90;;;;;;5009027;28;20029;-66
2023/02/25 08:23:24;;;;;;;10.98;6.68;;;20.10;99.90;;;;;;5011616;28;20030;-65
2023/02/25 08:25:54;;;;;;;10.65;6.82;;;20.10;99.90;;;;;;5012571;28;20026;-66
2023/02/25 08:28:25;;;;;;;10.55;6.88;;;20.10;99.90;;;;;;5018570;28;20084;-67
2023/02/25 08:30:51;;;;;;;10.10;6.85;;;20.10;99.90;;;;;;5002269;28;20026;-67
2023/02/25 08:33:17;;;;;;;9.20;5.20;;;20.20;99.90;;;;;;5022596;28;20025;-63
2023/02/25 08:35:43;;;;;;;10.20;6.63;;;20.20;99.90;;;;;;5010958;28;20041;-71
2023/02/25 08:38:11;;;;;;;9.82;6.18;;;20.10;99.90;;;;;;5018075;28;20030;-67
2023/02/25 08:40:38;;;;;;;11.20;6.18;;;20.10;99.90;;;;;;5024605;28;20495;-69
2023/02/25 08:43:08;;;;;;;11.10;5.77;;;20.20;99.90;;;;;;4997431;28;20104;-66
2023/02/25 08:45:35;;;;;;;10.18;6.28;;;20.20;99.90;;;;;;5017813;28;20295;-66
2023/02/25 08:48:01;;;;;;;9.85;6.50;;;20.20;99.90;;;;;;5013975;28;20076;-64
2023/02/25 08:50:28;;;;;;;10.88;6.95;;;20.20;99.90;;;;;;5015113;28;20030;-71
2023/02/25 08:52:54;;;;;;;10.98;6.22;;;20.20;99.90;;;;;;5024585;28;20021;-70
2023/02/25 08:55:23;;;;;;;9.82;6.78;;;20.20;99.90;;;;;;5020041;28;20051;-72
2023/02/25 08:57:49;;;;;;;9.15;6.28;;;20.20;99.90;;;;;;5030274;28;20060;-70
2023/02/25 09:00:16;;;;;;;11.15;7.18;;;20.20;99.90;;;;;;5013089;28;20132;-69
2023/02/25 09:02:43;;;;;;;11.45;6.82;;;20.30;99.90;;;;;;5015440;28;20025;-68
2023/02/25 09:05:10;;;;;;;9.40;6.90;;;20.30;99.90;;;;;;5017110;28;20569;-65
2023/02/25 09:07:36;;;;;;;10.68;6.28;;;20.30;99.90;;;;;;5019010;28;20032;-65
2023/02/25 09:10:06;;;;;;;9.57;6.53;;;20.40;99.90;;;;;;5028717;28;20029;-68
2023/02/25 09:12:32;;;;;;;9.48;6.35;;;20.40;99.90;;;;;;5020726;28;20380;-69
2023/02/25 09:14:58;;;;;;;8.07;5.65;;;20.40;99.90;;;;;;5017715;28;20049;-70
2023/02/25 09:17:24;;;;;;;8.32;6.10;;;20.50;99.90;;;;;;5019885;28;20838;-66
2023/02/25 09:19:50;;;;;;;9.05;6.40;;;20.50;99.90;;;;;;4997060;28;20025;-67
2023/02/25 09:22:18;;;;;;;14.68;5.97;;;20.50;99.90;;;;;;5024707;28;20111;-70
2023/02/25 09:24:44;;;;;;;9.02;6.05;;;20.60;99.90;;;;;;5024564;28;20022;-71
2023/02/25 09:27:11;;;;;;;7.88;5.35;;;20.60;99.90;;;;;;5009756;28;20026;-72
2023/02/25 09:29:38;;;;;;;8.00;5.85;;;20.60;99.90;;;;;;5018576;28;20032;-69
2023/02/25 09:32:05;;;;;;;8.40;5.70;;;20.70;99.90;;;;;;5028536;28;20692;-69
2023/02/25 09:34:34;;;;;;;13.40;6.45;;;20.70;99.90;;;;;;5021109;28;20029;-68
2023/02/25 09:37:02;;;;;;;8.38;5.70;;;20.80;99.90;;;;;;5019922;28;20022;-68
2023/02/25 09:39:28;;;;;;;8.57;5.53;;;20.80;99.90;;;;;;4995315;28;20112;-59
2023/02/25 09:42:02;;;;;;;9.75;5.78;;;20.80;99.90;;;;;;5026720;28;20104;-58
2023/02/25 09:44:44;;;;;;;8.52;5.53;;;20.80;99.90;;;;;;5024452;28;20068;-61
2023/02/25 09:47:12;;;;;;;13.75;5.80;;;20.90;99.90;;;;;;5023402;28;20045;-61
2023/02/25 09:50:03;;;;;;;11.45;5.47;;;20.90;99.90;;;;;;5024817;28;20052;-65
2023/02/25 09:52:46;;;;;;;11.00;5.50;;;20.90;99.90;;;;;;5025299;28;20021;-65
2023/02/25 09:55:14;;;;;;;7.63;5.03;;;21.00;99.90;;;;;;5013281;28;20025;-64
2023/02/25 09:57:40;;;;;;;9.27;5.88;;;21.00;99.90;;;;;;5016152;28;20030;-61
2023/02/25 10:00:19;;;;;;;7.82;5.38;;;21.00;99.90;;;;;;5026947;28;20143;-62
2023/02/25 10:02:58;;;;;;;9.38;5.63;;;21.00;99.90;;;;;;5000923;28;20721;-62
2023/02/25 10:05:40;;;;;;;7.20;5.20;;;21.00;99.90;;;;;;5022107;28;20489;-64
2023/02/25 10:08:06;;;;;;;7.10;4.90;;;21.00;99.90;;;;;;5020952;28;20026;-63
2023/02/25 10:10:48;;;;;;;8.93;5.40;;;21.00;99.90;;;;;;5026993;28;20026;-63
2023/02/25 10:13:31;;;;;;;7.32;5.00;;;21.00;99.90;;;;;;5017455;28;20542;-64
2023/02/25 10:16:15;;;;;;;7.30;4.93;;;21.10;99.90;;;;;;5025408;28;20036;-62
2023/02/25 10:19:08;;;;;;;9.30;5.57;;;21.10;99.90;;;;;;5028518;28;20026;-60
2023/02/25 10:21:59;;;;;;;7.50;4.97;;;21.10;99.90;;;;;;5023512;28;20379;-60
2023/02/25 10:24:48;;;;;;;11.45;6.07;;;21.10;99.90;;;;;;5011687;28;20029;-59
2023/02/25 10:27:28;;;;;;;12.13;5.85;;;21.20;99.90;;;;;;4998446;28;20033;-61
2023/02/25 10:30:02;;;;;;;8.77;5.40;;;21.30;99.90;;;;;;5016733;28;20025;-60
2023/02/25 10:32:34;;;;;;;8.25;5.43;;;21.30;99.90;;;;;;5023311;28;20021;-60
2023/02/25 10:35:12;;;;;;;12.73;4.90;;;21.30;99.90;;;;;;5014343;28;20026;-60
2023/02/25 10:37:38;;;;;;;7.32;4.45;;;21.30;99.90;;;;;;5017244;28;20018;-60
2023/02/25 10:40:09;;;;;;;11.10;5.40;;;21.40;99.90;;;;;;5021748;28;20475;-61
2023/02/25 10:42:36;;;;;;;12.32;5.00;;;21.40;99.90;;;;;;5013577;28;20108;-56
2023/02/25 10:45:09;;;;;;;8.52;4.75;;;21.40;99.90;;;;;;5019362;28;20042;-60
2023/02/25 10:47:38;;;;;;;12.93;4.93;;;21.40;99.90;;;;;;5016870;28;20025;-60
2023/02/25 10:50:18;;;;;;;11.70;4.65;;;21.40;99.90;;;;;;5015032;28;20037;-60
2023/02/25 10:52:56;;;;;;;10.65;4.78;;;21.40;99.90;;;;;;5028952;28;20053;-60
2023/02/25 10:55:25;;;;;;;;;;;21.40;99.90;;;;;;5024342;28;20017;-58
2023/02/25 10:57:51;;;;;;;7.95;5.03;;;21.40;99.90;;;;;;5018623;28;19905;-60
2023/02/25 11:00:23;;;;;;;15.63;5.20;;;21.50;99.90;;;;;;5024541;28;20391;-59
2023/02/25 11:02:50;;;;;;;14.00;5.35;;;21.40;99.90;;;;;;5021448;28;20032;-59
2023/02/25 11:05:39;;;;;;;12.15;4.47;;;21.40;99.90;;;;;;5021608;28;20120;-59
2023/02/25 11:08:26;;;;;;;14.20;5.25;;;21.40;99.90;;;;;;5015804;28;20062;-58
2023/02/25 11:11:16;;;;;;;8.97;5.20;;;21.50;99.90;;;;;;5027911;28;20033;-58
2023/02/25 11:13:43;;;;;;;12.32;4.97;;;21.50;99.90;;;;;;5023584;28;20041;-60
2023/02/25 11:16:12;;;;;;;7.57;4.75;;;21.50;99.90;;;;;;5021230;28;20018;-59
2023/02/25 11:18:39;;;;;;;10.45;4.63;;;21.50;99.90;;;;;;5022829;28;20026;-60
2023/02/25 11:21:09;;;;;;;14.05;4.75;;;21.50;99.90;;;;;;5025386;28;20097;-58
2023/02/25 11:23:42;;;;;;;10.30;4.72;;;21.50;99.90;;;;;;5015649;28;20414;-60
2023/02/25 11:26:32;;;;;;;14.05;6.20;;;21.50;99.90;;;;;;5019125;28;20033;-59
2023/02/25 11:29:06;;;;;;;14.73;4.07;;;21.50;99.90;;;;;;5016209;28;20569;-56
2023/02/25 11:31:39;;;;;;;13.55;4.35;;;21.50;99.90;;;;;;4999335;28;20072;-58
2023/02/25 11:34:21;;;;;;;9.02;4.70;;;21.60;99.90;;;;;;5023752;28;20416;-59
2023/02/25 11:36:47;;;;;;;10.75;4.63;;;21.60;99.90;;;;;;5023901;28;20038;-62
2023/02/25 11:39:22;;;;;;;10.45;4.32;;;21.60;99.90;;;;;;5022930;28;20407;-62
2023/02/25 11:41:51;;;;;;;9.93;4.43;;;21.60;99.90;;;;;;5019576;28;20156;-61
2023/02/25 11:44:29;;;;;;;13.27;4.32;;;21.70;99.90;;;;;;5026999;28;20401;-63
2023/02/25 11:47:24;;;;;;;6.20;3.63;;;21.70;99.90;;;;;;5011202;28;20038;-64
2023/02/25 11:50:08;;;;;;;6.53;4.07;;;21.70;99.90;;;;;;5018813;28;20025;-64
2023/02/25 11:52:45;;;;;;;8.38;4.10;;;21.60;99.90;;;;;;5018649;28;20109;-63
2023/02/25 11:55:40;;;;;;;6.93;3.83;;;21.70;99.90;;;;;;5024956;28;20040;-65
2023/02/25 11:58:30;;;;;;;7.93;4.30;;;21.70;99.90;;;;;;4995875;28;20034;-62
2023/02/25 12:01:12;;;;;;;8.15;4.78;;;21.70;99.90;;;;;;5025182;28;20045;-61
2023/02/25 12:03:44;;;;;;;9.93;4.57;;;21.70;99.90;;;;;;5022762;28;20029;-62
2023/02/25 12:06:25;;;;;;;8.85;5.13;;;21.70;99.90;;;;;;5015522;28;20026;-61
2023/02/25 12:09:28;;;;;;;6.95;4.72;;;21.70;99.90;;;;;;5018528;28;20044;-62
2023/02/25 12:12:26;;;;;;;6.57;4.43;;;21.70;99.90;;;;;;5016688;28;20136;-62
2023/02/25 12:15:13;;;;;;;6.93;4.03;;;21.70;99.90;;;;;;5001860;28;20107;-64
2023/02/25 12:17:44;;;;;;;8.10;4.65;;;21.80;99.90;;;;;;5022511;28;20101;-65
2023/02/25 12:20:28;;;;;;;9.73;5.35;;;21.80;99.90;;;;;;5020362;28;20029;-66
2023/02/25 12:23:39;;;;;;;9.88;4.93;;;21.80;99.90;;;;;;5016291;28;20029;-64
2023/02/25 12:26:16;;;;;;;7.88;4.80;;;21.80;99.90;;;;;;5018151;28;20112;-63
2023/02/25 12:29:05;;;;;;;;;;;21.80;99.90;;;;;;5024522;28;20041;-62
2023/02/25 12:31:43;;;;;;;6.88;4.50;;;21.80;99.90;;;;;;4988245;28;20074;-65
2023/02/25 12:34:33;;;;;;;7.65;4.57;;;21.80;99.90;;;;;;5017111;28;20610;-65
2023/02/25 12:37:02;;;;;;;9.70;4.80;;;21.80;99.90;;;;;;5022944;28;20423;-64
2023/02/25 12:40:05;;;;;;;8.18;4.45;;;21.80;99.90;;;;;;5011915;28;20430;-65
2023/02/25 12:42:43;;;;;;;11.23;5.18;;;21.80;99.90;;;;;;5013242;28;20108;-63
2023/02/25 12:45:30;;;;;;;8.05;4.70;;;21.70;99.90;;;;;;5022200;28;20037;-64
2023/02/25 12:48:19;;;;;;;10.63;5.38;;;21.70;99.90;;;;;;5018383;28;20025;-66
2023/02/25 12:51:04;;;;;;;10.43;6.78;;;21.70;99.90;;;;;;5026569;28;20033;-55
2023/02/25 12:53:50;;;;;;;13.02;7.90;;;21.70;99.90;;;;;;5006745;28;20025;-68
2023/02/25 12:56:40;;;;;;;16.42;8.63;;;21.70;99.90;;;;;;4987964;28;20399;-61
2023/02/25 12:59:43;;;;;;;18.50;10.35;;;21.80;99.90;;;;;;5012782;28;20033;-60